createdAt,value
2019-01-21T00:01:13.973Z,95.50
2019-01-21T00:03:42.270Z,90.20
2019-01-21T00:06:10.618Z,94.80
2019-01-21T00:08:38.945Z,102.17
2019-01-21T00:11:07.429Z,102.37
2019-01-21T00:13:35.710Z,100.43
2019-01-21T00:16:04.071Z,95.00
2019-01-21T00:18:32.361Z,96.83
2019-01-21T00:21:00.732Z,90.40
2019-01-21T00:23:29.077Z,92.93
2019-01-21T00:25:57.365Z,95.53
2019-01-21T00:28:25.666Z,101.73
2019-01-21T00:30:53.957Z,92.83
2019-01-21T00:33:22.243Z,97.37
2019-01-21T00:35:50.636Z,92.77
2019-01-21T00:38:18.970Z,93.90
2019-01-21T00:40:47.333Z,96.17
2019-01-21T00:43:15.615Z,95.50
2019-01-21T00:45:43.900Z,93.03
2019-01-21T00:48:12.213Z,92.00
2019-01-21T00:50:40.581Z,84.97
2019-01-21T00:53:08.952Z,95.80
2019-01-21T00:55:37.240Z,94.07
2019-01-21T00:58:05.632Z,93.07
2019-01-21T01:00:33.917Z,94.23
2019-01-21T01:03:02.213Z,94.33
2019-01-21T01:05:30.584Z,92.33
2019-01-21T01:07:58.872Z,93.37
2019-01-21T01:10:27.270Z,99.93
2019-01-21T01:12:55.552Z,95.73
2019-01-21T01:15:23.871Z,93.13
2019-01-21T01:17:52.224Z,85.00
2019-01-21T01:20:22.228Z,90.77
2019-01-21T01:22:50.540Z,95.17
2019-01-21T01:25:18.844Z,89.77
2019-01-21T01:27:47.118Z,85.07
2019-01-21T01:30:16.981Z,108.40
2019-01-21T01:32:45.333Z,86.47
2019-01-21T01:35:14.993Z,88.20
2019-01-21T01:37:43.925Z,97.33
2019-01-21T01:40:14.422Z,87.90
2019-01-21T01:42:42.699Z,92.33
2019-01-21T01:45:14.267Z,90.43
2019-01-21T01:47:44.782Z,95.37
2019-01-21T01:50:13.114Z,82.70
2019-01-21T01:52:41.412Z,88.37
2019-01-21T01:55:10.611Z,97.13
2019-01-21T01:57:38.970Z,91.33
2019-01-21T02:00:13.519Z,98.27
2019-01-21T02:02:41.827Z,91.37
2019-01-21T02:05:10.180Z,91.77
2019-01-21T02:07:38.570Z,87.90
2019-01-21T02:10:12.227Z,97.87
2019-01-21T02:12:40.589Z,84.67
2019-01-21T02:15:11.431Z,90.27
2019-01-21T02:17:39.808Z,82.63
2019-01-21T02:20:11.607Z,89.97
2019-01-21T02:22:42.483Z,77.40
2019-01-21T02:25:11.171Z,79.43
2019-01-21T02:27:45.653Z,86.87
2019-01-21T02:30:29.228Z,79.27
2019-01-21T02:33:09.514Z,76.30
2019-01-21T02:35:41.139Z,87.53
2019-01-21T02:38:18.517Z,76.73
2019-01-21T02:40:52.744Z,77.70
2019-01-21T02:43:36.592Z,90.07
2019-01-21T02:46:08.216Z,84.20
2019-01-21T02:48:54.681Z,78.97
2019-01-21T02:51:31.798Z,82.23
2019-01-21T02:54:03.349Z,90.03
2019-01-21T02:56:40.521Z,78.90
2019-01-21T03:02:11.170Z,77.90
2019-01-21T03:04:51.681Z,84.17
2019-01-21T03:07:40.063Z,75.00
2019-01-21T03:10:28.089Z,81.23
2019-01-21T03:13:02.225Z,77.93
2019-01-21T03:15:56.719Z,77.30
2019-01-21T03:18:37.310Z,76.37
2019-01-21T03:21:11.461Z,74.47
2019-01-21T03:24:11.453Z,80.03
2019-01-21T03:26:59.258Z,80.30
2019-01-21T03:29:42.723Z,76.43
2019-01-21T03:32:35.170Z,82.87
2019-01-21T03:35:12.204Z,72.57
2019-01-21T03:37:56.229Z,67.63
2019-01-21T03:40:33.675Z,82.17
2019-01-21T03:43:13.850Z,78.77
2019-01-21T03:46:05.319Z,78.37
2019-01-21T03:48:36.732Z,75.27
2019-01-21T03:51:28.972Z,73.97
2019-01-21T03:54:03.417Z,76.60
2019-01-21T03:56:35.075Z,71.07
2019-01-21T03:59:21.667Z,79.93
2019-01-21T04:02:10.893Z,73.60
2019-01-21T04:05:03.104Z,75.27
2019-01-21T04:07:50.997Z,71.97
2019-01-21T04:10:30.841Z,73.30
2019-01-21T04:13:05.007Z,72.23
2019-01-21T04:15:55.596Z,78.33
2019-01-21T04:18:42.252Z,77.70
2019-01-21T04:21:22.631Z,77.67
2019-01-21T04:24:14.844Z,72.97
2019-01-21T04:26:52.064Z,79.13
2019-01-21T04:29:26.307Z,75.60
2019-01-21T04:32:00.828Z,75.00
2019-01-21T04:34:50.063Z,81.73
2019-01-21T04:37:38.313Z,79.90
2019-01-21T04:40:19.152Z,70.70
2019-01-21T04:43:14.651Z,85.87
2019-01-21T04:46:01.213Z,76.03
2019-01-21T04:48:38.130Z,74.80
2019-01-21T04:51:22.199Z,80.57
2019-01-21T04:53:59.380Z,68.23
2019-01-21T04:56:55.705Z,75.63
2019-01-21T04:59:46.521Z,71.03
2019-01-21T05:02:35.288Z,76.80
2019-01-21T05:05:20.379Z,71.43
2019-01-21T05:08:00.797Z,73.07
2019-01-21T05:11:01.733Z,76.40
2019-01-21T05:13:52.614Z,75.83
2019-01-21T05:16:30.499Z,71.47
2019-01-21T05:19:13.691Z,75.53
2019-01-21T05:21:56.960Z,76.00
2019-01-21T05:24:46.592Z,75.93
2019-01-21T05:27:21.298Z,72.80
2019-01-21T05:30:12.009Z,73.30
2019-01-21T05:32:58.256Z,81.33
2019-01-21T05:35:35.461Z,67.17
2019-01-21T05:38:12.983Z,80.53
2019-01-21T05:40:50.208Z,78.53
2019-01-21T05:43:51.994Z,74.10
2019-01-21T05:46:29.544Z,89.80
2019-01-21T05:49:03.670Z,76.60
2019-01-21T05:51:52.175Z,73.73
2019-01-21T05:54:40.379Z,82.30
2019-01-21T05:57:18.111Z,73.53
2019-01-21T06:00:17.056Z,77.53
2019-01-21T06:02:54.474Z,89.53
2019-01-21T06:05:28.975Z,76.50
2019-01-21T06:08:15.818Z,80.40
2019-01-21T06:11:06.651Z,80.33
2019-01-21T06:13:53.459Z,73.10
2019-01-21T06:16:39.795Z,83.27
2019-01-21T06:19:14.480Z,78.20
2019-01-21T06:21:49.146Z,78.87
2019-01-21T06:24:24.440Z,80.60
2019-01-21T06:27:27.211Z,80.97
2019-01-21T06:30:19.860Z,80.70
2019-01-21T06:32:54.348Z,79.40
2019-01-21T06:35:31.609Z,88.00
2019-01-21T06:38:22.595Z,95.10
2019-01-21T06:41:09.167Z,90.47
2019-01-21T06:43:49.750Z,88.53
2019-01-21T06:46:26.978Z,87.10
2019-01-21T06:49:29.816Z,94.27
2019-01-21T06:52:17.807Z,78.93
2019-01-21T06:55:14.679Z,83.63
2019-01-21T06:58:14.509Z,95.00
2019-01-21T07:00:48.573Z,81.73
2019-01-21T07:03:31.779Z,84.57
2019-01-21T07:06:03.338Z,77.63
2019-01-21T07:08:55.942Z,86.27
2019-01-21T07:11:33.236Z,80.57
2019-01-21T07:14:04.858Z,86.93
2019-01-21T07:16:36.489Z,79.20
2019-01-21T07:19:13.998Z,76.90
2019-01-21T07:21:54.169Z,74.60
2019-01-21T07:24:28.310Z,73.93
2019-01-21T07:27:17.499Z,78.03
2019-01-21T07:30:04.389Z,68.43
2019-01-21T07:32:53.880Z,71.37
2019-01-21T07:35:41.984Z,73.53
2019-01-21T07:38:16.323Z,80.17
2019-01-21T07:41:04.101Z,78.77
2019-01-21T07:43:41.056Z,84.93
2019-01-21T07:46:24.529Z,76.67
2019-01-21T07:49:30.673Z,67.10
2019-01-21T07:55:30.374Z,63.77
2019-01-21T07:58:13.886Z,70.27
2019-01-21T08:00:48.501Z,67.87
2019-01-21T08:03:29.198Z,71.47
2019-01-21T08:06:03.539Z,68.60
2019-01-21T08:08:47.078Z,62.43
2019-01-21T08:11:33.729Z,58.23
2019-01-21T08:14:08.118Z,62.93
2019-01-21T08:16:59.288Z,64.20
2019-01-21T08:19:33.736Z,58.03
2019-01-21T08:22:23.407Z,70.43
2019-01-21T08:25:16.030Z,58.97
2019-01-21T08:27:50.367Z,65.77
2019-01-21T08:30:21.924Z,62.43
2019-01-21T08:33:17.502Z,63.83
2019-01-21T08:36:00.860Z,67.00
2019-01-21T08:38:51.831Z,67.53
2019-01-21T08:41:42.598Z,65.50
2019-01-21T08:44:19.828Z,56.47
2019-01-21T08:47:03.517Z,57.80
2019-01-21T08:49:44.132Z,65.37
2019-01-21T08:52:27.566Z,61.07
2019-01-21T08:55:10.813Z,63.40
2019-01-21T08:57:58.734Z,60.50
2019-01-21T09:00:30.366Z,63.57
2019-01-21T09:03:14.597Z,69.53
2019-01-21T09:05:52.246Z,69.03
2019-01-21T09:08:29.628Z,61.87
2019-01-21T09:11:13.053Z,66.87
2019-01-21T09:13:53.286Z,69.90
2019-01-21T09:16:42.849Z,64.63
2019-01-21T09:19:29.435Z,64.83
2019-01-21T09:22:32.581Z,71.03
2019-01-21T09:25:04.244Z,64.17
2019-01-21T09:27:45.050Z,71.90
2019-01-21T09:30:16.695Z,68.27
2019-01-21T09:32:57.097Z,65.10
2019-01-21T09:35:45.207Z,64.30
2019-01-21T09:38:37.824Z,67.63
2019-01-21T09:41:11.953Z,78.73
2019-01-21T09:43:55.430Z,66.77
2019-01-21T09:46:44.856Z,64.40
2019-01-21T09:49:13.504Z,73.73
2019-01-21T09:51:44.398Z,63.17
2019-01-21T09:54:12.763Z,64.97
2019-01-21T09:56:41.327Z,68.37
2019-01-21T09:59:09.665Z,75.40
2019-01-21T10:01:38.034Z,77.67
2019-01-21T10:04:06.322Z,57.80
2019-01-21T10:06:47.267Z,68.67
2019-01-21T10:09:37.039Z,66.50
2019-01-21T10:12:26.587Z,74.13
2019-01-21T10:15:03.899Z,70.40
2019-01-21T10:17:35.485Z,73.47
2019-01-21T10:20:23.372Z,74.10
2019-01-21T10:23:11.387Z,66.70
2019-01-21T10:25:57.722Z,66.33
2019-01-21T10:28:51.868Z,64.40
2019-01-21T10:31:39.905Z,65.83
2019-01-21T10:34:26.336Z,62.30
2019-01-21T10:37:00.494Z,64.33
2019-01-21T10:39:47.049Z,66.20
2019-01-21T10:42:42.467Z,60.03
2019-01-21T10:45:25.852Z,63.00
2019-01-21T10:48:00.172Z,69.17
2019-01-21T10:50:34.259Z,63.63
2019-01-21T10:53:08.543Z,65.90
2019-01-21T10:55:58.205Z,67.20
2019-01-21T10:58:38.502Z,65.67
2019-01-21T11:01:33.624Z,59.80
2019-01-21T11:04:07.633Z,67.07
2019-01-21T11:06:56.958Z,68.47
2019-01-21T11:09:31.172Z,67.07
2019-01-21T11:12:20.805Z,71.00
2019-01-21T11:15:04.411Z,61.93
2019-01-21T11:17:41.779Z,65.70
2019-01-21T11:20:35.272Z,59.83
2019-01-21T11:23:18.494Z,60.10
2019-01-21T11:25:58.104Z,59.50
2019-01-21T11:28:32.604Z,61.57
2019-01-21T11:31:25.196Z,57.40
2019-01-21T11:33:59.336Z,61.90
2019-01-21T11:36:36.951Z,58.40
2019-01-21T11:39:11.827Z,57.03
2019-01-21T11:42:16.536Z,54.40
2019-01-21T11:45:07.680Z,56.43
2019-01-21T11:47:42.028Z,56.53
2019-01-21T11:50:16.426Z,55.43
2019-01-21T11:52:51.870Z,61.13
2019-01-21T11:55:25.949Z,60.03
2019-01-21T11:58:11.978Z,58.87
2019-01-21T12:00:46.276Z,63.17
2019-01-21T12:03:23.565Z,55.63
2019-01-21T12:05:53.376Z,58.70
2019-01-21T12:08:54.884Z,56.93
2019-01-21T12:11:32.490Z,60.03
2019-01-21T12:14:06.867Z,62.50
2019-01-21T12:16:44.201Z,49.63
2019-01-21T12:19:24.643Z,60.20
2019-01-21T12:22:10.331Z,58.57
2019-01-21T12:24:38.775Z,54.73
2019-01-21T12:27:16.189Z,54.07
2019-01-21T12:29:53.499Z,53.87
2019-01-21T12:32:45.838Z,51.50
2019-01-21T12:35:26.012Z,55.27
2019-01-21T12:38:12.322Z,53.40
2019-01-21T12:41:06.190Z,48.47
2019-01-21T12:43:49.629Z,53.90
2019-01-21T12:46:30.368Z,54.17
2019-01-21T12:49:07.795Z,53.70
2019-01-21T12:52:00.061Z,50.73
2019-01-21T12:54:31.734Z,45.63
2019-01-21T12:57:24.366Z,49.63
2019-01-21T13:00:15.267Z,48.37
2019-01-21T13:02:52.380Z,43.93
2019-01-21T13:05:32.535Z,56.30
2019-01-21T13:08:09.720Z,52.37
2019-01-21T13:10:47.278Z,49.77
2019-01-21T13:13:30.207Z,53.77
2019-01-21T13:16:13.438Z,53.00
2019-01-21T13:19:00.275Z,57.13
2019-01-21T13:21:46.799Z,73.10
2019-01-21T13:24:21.167Z,62.90
2019-01-21T13:26:52.833Z,58.53
2019-01-21T13:29:27.255Z,56.10
2019-01-21T13:32:04.632Z,51.20
2019-01-21T13:34:36.267Z,55.90
2019-01-21T13:37:24.301Z,65.47
2019-01-21T13:40:01.744Z,59.97
2019-01-21T13:42:33.371Z,54.53
2019-01-21T13:45:19.904Z,52.17
2019-01-21T13:48:03.209Z,60.20
2019-01-21T13:50:46.394Z,59.80
2019-01-21T13:53:40.673Z,62.07
2019-01-21T13:56:18.137Z,65.60
2019-01-21T13:59:04.799Z,66.23
2019-01-21T14:01:39.224Z,71.03
2019-01-21T14:04:19.865Z,69.43
2019-01-21T14:06:54.164Z,76.40
2019-01-21T14:09:48.164Z,70.73
2019-01-21T14:12:34.756Z,70.17
2019-01-21T14:15:25.830Z,75.23
2019-01-21T14:18:13.996Z,75.20
2019-01-21T14:21:03.070Z,74.30
2019-01-21T14:23:49.588Z,77.77
2019-01-21T14:26:33.161Z,76.37
2019-01-21T14:29:04.705Z,70.00
2019-01-21T14:31:44.832Z,79.53
2019-01-21T14:34:28.608Z,83.73
2019-01-21T14:37:24.285Z,80.90
2019-01-21T14:40:04.465Z,76.53
2019-01-21T14:42:53.849Z,90.87
2019-01-21T14:45:27.078Z,96.77
2019-01-21T14:48:07.353Z,81.00
2019-01-21T14:50:50.549Z,92.90
2019-01-21T14:53:37.698Z,98.03
2019-01-21T14:56:14.776Z,91.57
2019-01-21T14:58:46.437Z,94.80
2019-01-21T15:01:29.669Z,83.00
2019-01-21T15:04:34.537Z,96.60
2019-01-21T15:07:08.699Z,84.70
2019-01-21T15:09:40.349Z,91.20
2019-01-21T15:12:29.840Z,84.13
2019-01-21T15:15:16.730Z,83.13
2019-01-21T15:18:04.933Z,75.80
2019-01-21T15:20:36.615Z,85.40
2019-01-21T15:23:26.240Z,91.43
2019-01-21T15:26:19.015Z,89.77
2019-01-21T15:29:07.288Z,97.43
2019-01-21T15:31:47.670Z,87.97
2019-01-21T15:34:36.940Z,86.30
2019-01-21T15:37:11.384Z,74.70
2019-01-21T15:39:43.119Z,76.70
2019-01-21T15:42:17.284Z,81.27
2019-01-21T15:44:51.545Z,89.67
2019-01-21T15:47:26.011Z,77.60
2019-01-21T15:50:21.471Z,77.73
2019-01-21T15:53:12.331Z,79.17
2019-01-21T15:55:49.482Z,70.03
2019-01-21T15:58:48.082Z,64.50
2019-01-21T16:01:19.614Z,63.20
2019-01-21T16:03:56.262Z,65.10
2019-01-21T16:06:36.317Z,57.93
2019-01-21T16:09:25.914Z,65.87
2019-01-21T16:12:09.123Z,54.90
2019-01-21T16:14:46.988Z,58.50
2019-01-21T16:17:30.035Z,64.80
2019-01-21T16:20:00.948Z,62.03
2019-01-21T16:22:43.278Z,62.67
2019-01-21T16:25:17.589Z,60.73
2019-01-21T16:28:00.547Z,64.77
2019-01-21T16:30:53.263Z,70.23
2019-01-21T16:33:54.440Z,71.47
2019-01-21T16:36:37.699Z,58.40
2019-01-21T16:39:17.923Z,64.53
2019-01-21T16:41:51.913Z,62.33
2019-01-21T16:44:20.201Z,68.03
2019-01-21T16:46:48.586Z,56.00
2019-01-21T16:49:16.876Z,75.57
2019-01-21T16:51:45.150Z,65.77
2019-01-21T16:54:13.450Z,74.93
2019-01-21T16:56:41.848Z,66.23
2019-01-21T16:59:10.132Z,64.10
2019-01-21T17:01:38.434Z,72.10
2019-01-21T17:04:06.831Z,68.00
2019-01-21T17:06:35.226Z,61.60
2019-01-21T17:09:05.133Z,69.93
2019-01-21T17:11:33.433Z,71.80
2019-01-21T17:14:21.251Z,68.47
2019-01-21T17:16:49.637Z,66.63
2019-01-21T17:19:17.987Z,62.70
2019-01-21T17:21:46.324Z,63.53
2019-01-21T17:24:14.675Z,69.70
2019-01-21T17:26:43.454Z,62.77
2019-01-21T17:29:11.780Z,72.93
2019-01-21T17:31:41.792Z,74.23
2019-01-21T17:34:10.182Z,71.13
2019-01-21T17:36:38.459Z,72.67
2019-01-21T17:39:07.779Z,74.33
2019-01-21T17:41:36.082Z,66.50
2019-01-21T17:44:04.458Z,60.67
2019-01-21T17:46:32.886Z,62.50
2019-01-21T17:49:04.619Z,67.80
2019-01-21T17:51:34.436Z,60.63
2019-01-21T17:54:03.423Z,55.97
2019-01-21T17:56:31.697Z,67.93
2019-01-21T17:59:00.021Z,70.50
2019-01-21T18:01:28.315Z,65.03
2019-01-21T18:03:56.668Z,73.23
2019-01-21T18:06:25.304Z,78.97
2019-01-21T18:08:53.688Z,82.67
2019-01-21T18:11:22.029Z,83.33
2019-01-21T18:13:50.319Z,74.57
2019-01-21T18:16:18.616Z,75.57
2019-01-21T18:18:46.974Z,74.27
2019-01-21T18:21:15.354Z,63.53
2019-01-21T18:23:43.621Z,55.40
2019-01-21T18:26:11.988Z,56.07
2019-01-21T18:28:40.400Z,49.80
2019-01-21T18:31:08.744Z,53.83
2019-01-21T18:33:37.120Z,50.57
2019-01-21T18:36:05.497Z,53.23
2019-01-21T18:38:33.788Z,54.87
2019-01-21T18:41:02.079Z,52.10
2019-01-21T18:43:30.432Z,51.07
2019-01-21T18:45:58.762Z,49.17
2019-01-21T18:48:27.152Z,46.40
2019-01-21T18:50:55.436Z,50.53
2019-01-21T18:53:24.315Z,49.23
2019-01-21T18:55:52.735Z,54.13
2019-01-21T18:58:21.084Z,45.50
2019-01-21T19:00:49.375Z,51.03
2019-01-21T19:03:17.836Z,46.27
2019-01-21T19:05:46.110Z,45.77
2019-01-21T19:08:14.428Z,40.97
2019-01-21T19:10:42.824Z,50.53
2019-01-21T19:13:11.229Z,55.83
2019-01-21T19:15:39.610Z,59.60
2019-01-21T19:18:07.909Z,47.07
2019-01-21T19:20:36.208Z,60.60
2019-01-21T19:23:05.014Z,55.67
2019-01-21T19:25:33.315Z,54.90
2019-01-21T19:28:01.610Z,57.07
2019-01-21T19:30:29.959Z,54.57
2019-01-21T19:32:58.254Z,61.17
2019-01-21T19:35:29.639Z,40.27
2019-01-21T19:37:57.914Z,55.03
2019-01-21T19:40:26.209Z,51.43
2019-01-21T19:42:54.493Z,41.63
2019-01-21T19:45:22.915Z,43.63
2019-01-21T19:47:51.210Z,51.03
2019-01-21T19:50:21.445Z,52.87
2019-01-21T19:52:49.813Z,50.17
2019-01-21T19:55:34.383Z,51.23
2019-01-21T19:58:04.028Z,54.40
2019-01-21T20:00:32.334Z,61.37
2019-01-21T20:03:00.659Z,55.83
2019-01-21T20:05:28.960Z,51.67
2019-01-21T20:07:57.314Z,56.67
2019-01-21T20:10:25.653Z,54.17
2019-01-21T20:12:54.007Z,55.80
2019-01-21T20:15:22.326Z,45.87
2019-01-21T20:17:50.797Z,46.77
2019-01-21T20:20:27.861Z,51.37
2019-01-21T20:22:57.617Z,55.87
2019-01-21T20:25:26.287Z,49.20
2019-01-21T20:27:54.600Z,45.67
2019-01-21T20:30:24.390Z,47.00
2019-01-21T20:32:52.687Z,54.83
2019-01-21T20:35:21.013Z,50.60
2019-01-21T20:37:49.398Z,57.73
2019-01-21T20:40:25.867Z,54.00
2019-01-21T20:42:54.232Z,43.33
2019-01-21T20:45:23.285Z,48.07
2019-01-21T20:47:51.639Z,53.63
2019-01-21T20:50:25.312Z,51.23
2019-01-21T20:52:53.658Z,52.77
2019-01-21T20:55:21.970Z,47.40
2019-01-21T20:57:50.346Z,42.13
2019-01-21T21:00:20.682Z,47.73
2019-01-21T21:02:52.709Z,43.30
2019-01-21T21:05:21.136Z,38.40
2019-01-21T21:07:49.506Z,46.10
2019-01-21T21:10:17.991Z,39.53
2019-01-21T21:12:46.515Z,31.10
2019-01-21T21:15:17.988Z,39.27
2019-01-21T21:17:46.440Z,40.90
2019-01-21T21:20:14.881Z,40.43
2019-01-21T21:22:43.245Z,41.07
2019-01-21T21:25:14.604Z,45.50
2019-01-21T21:27:42.970Z,44.13
2019-01-21T21:30:26.081Z,43.70
2019-01-21T21:32:54.568Z,47.43
2019-01-21T21:35:23.329Z,48.33
2019-01-21T21:37:51.694Z,47.60
2019-01-21T21:40:21.715Z,53.30
2019-01-21T21:42:50.112Z,39.90
2019-01-21T21:45:20.312Z,46.70
2019-01-21T21:47:48.683Z,42.30
2019-01-21T21:50:22.634Z,44.57
2019-01-21T21:52:51.073Z,41.90
2019-01-21T21:55:19.425Z,38.23
2019-01-21T21:57:47.790Z,45.13
2019-01-21T22:00:23.960Z,42.47
2019-01-21T22:02:53.246Z,51.37
2019-01-21T22:05:21.607Z,44.97
2019-01-21T22:07:49.986Z,44.70
2019-01-21T22:10:21.161Z,44.30
2019-01-21T22:12:50.371Z,46.33
2019-01-21T22:15:20.898Z,44.17
2019-01-21T22:17:49.262Z,59.10
2019-01-21T22:20:19.775Z,39.80
2019-01-21T22:22:48.175Z,51.10
2019-01-21T22:25:16.839Z,43.33
2019-01-21T22:27:45.183Z,41.93
2019-01-21T22:30:19.746Z,46.13
2019-01-21T22:32:48.132Z,41.50
2019-01-21T22:35:16.528Z,45.97
2019-01-21T22:37:45.419Z,47.47
2019-01-21T22:40:26.862Z,39.27
2019-01-21T22:42:55.226Z,44.77
2019-01-21T22:45:23.591Z,44.90
2019-01-21T22:47:51.996Z,44.27
2019-01-21T22:50:20.349Z,43.63
2019-01-21T22:52:48.700Z,50.37
2019-01-21T22:55:17.340Z,50.30
2019-01-21T22:57:45.713Z,48.20
2019-01-21T23:00:27.711Z,59.03
2019-01-21T23:02:56.140Z,50.33
2019-01-21T23:05:24.579Z,58.93
2019-01-21T23:07:52.935Z,50.40
2019-01-21T23:10:21.285Z,54.23
2019-01-21T23:12:49.638Z,57.57
2019-01-21T23:15:18.011Z,44.93
2019-01-21T23:17:46.371Z,50.47
2019-01-21T23:20:14.741Z,44.90
2019-01-21T23:22:48.955Z,53.10
2019-01-21T23:25:13.137Z,50.70
2019-01-21T23:27:41.889Z,49.07
2019-01-21T23:30:13.445Z,35.77
2019-01-21T23:32:41.854Z,51.67
2019-01-21T23:35:10.215Z,56.77
2019-01-21T23:37:38.656Z,43.73
2019-01-21T23:40:10.021Z,44.90
2019-01-21T23:42:38.370Z,50.73
2019-01-21T23:45:09.016Z,48.70
2019-01-21T23:47:37.377Z,41.93
2019-01-21T23:50:14.064Z,53.20
2019-01-21T23:52:42.931Z,50.10
2019-01-21T23:55:12.645Z,44.27
2019-01-21T23:57:41.052Z,45.53
